Time;durP1;ratioP1;P1;durP2;ratioP2;P2;SDS_P1;SDS_P2;PMS_P1;PMS_P2;Temp;Humidity;BMP_temperature;BMP_pressure;BME280_temperature;BME280_humidity;BME280_pressure;Samples;Min_cycle;Max_cycle;Signal;HPM_P1;HPM_P2
2023/04/28 00:00:03;;;;;;;3.57;1.87;;;6.50;99.90;;;;;;5017476;28;20269;-79
2023/04/28 00:02:29;;;;;;;6.30;2.33;;;6.50;99.90;;;;;;5015995;28;20233;-78
2023/04/28 00:04:54;;;;;;;4.43;1.93;;;6.60;99.90;;;;;;5017384;28;20171;-79
2023/04/28 00:07:20;;;;;;;4.93;2.33;;;6.50;99.90;;;;;;5017331;28;20182;-78
2023/04/28 00:09:46;;;;;;;7.50;2.50;;;6.50;99.90;;;;;;5016189;28;20187;-80
2023/04/28 00:12:11;;;;;;;4.97;2.33;;;6.60;99.90;;;;;;5017051;28;20185;-79
2023/04/28 00:14:37;;;;;;;10.43;2.33;;;6.60;99.90;;;;;;5016311;28;20677;-79
2023/04/28 00:17:03;;;;;;;3.40;1.70;;;6.60;99.90;;;;;;5016246;28;20520;-79
2023/04/28 00:19:29;;;;;;;5.67;2.40;;;6.60;99.90;;;;;;5016026;28;20183;-79
2023/04/28 00:21:54;;;;;;;4.07;2.07;;;6.60;99.90;;;;;;5015438;28;20183;-79
2023/04/28 00:24:20;;;;;;;3.73;2.03;;;6.60;99.90;;;;;;5015792;28;20266;-79
2023/04/28 00:26:46;;;;;;;4.77;2.17;;;6.60;99.90;;;;;;5015912;28;20270;-79
2023/04/28 00:29:11;;;;;;;4.23;2.30;;;6.60;99.90;;;;;;5017221;28;20207;-79
2023/04/28 00:31:37;;;;;;;3.77;1.93;;;6.70;99.90;;;;;;5016010;28;20258;-79
2023/04/28 00:34:03;;;;;;;3.20;2.33;;;6.70;99.90;;;;;;5016923;28;20206;-79
2023/04/28 00:36:31;;;;;;;3.13;2.30;;;6.60;99.90;;;;;;5017093;28;20595;-79
2023/04/28 00:38:57;;;;;;;7.43;2.27;;;6.60;99.90;;;;;;5015442;28;20203;-79
2023/04/28 00:41:23;;;;;;;6.83;2.03;;;6.70;99.90;;;;;;5016794;28;20171;-79
2023/04/28 00:43:49;;;;;;;4.60;2.07;;;6.70;99.90;;;;;;5015675;28;20214;-79
2023/04/28 00:46:25;;;;;;;9.00;2.70;;;6.70;99.90;;;;;;5016935;28;20217;-78
2023/04/28 00:48:52;;;;;;;4.57;2.40;;;6.70;99.90;;;;;;5016949;28;20166;-79
2023/04/28 00:51:18;;;;;;;4.77;2.53;;;6.70;99.90;;;;;;5016642;28;20179;-80
2023/04/28 00:53:44;;;;;;;6.93;2.53;;;6.70;99.90;;;;;;5015220;28;20175;-80
2023/04/28 00:56:10;;;;;;;4.70;2.57;;;6.70;99.90;;;;;;5015529;28;20200;-79
2023/04/28 00:58:36;;;;;;;8.03;2.33;;;6.70;99.90;;;;;;5016766;28;20175;-79
2023/04/28 01:01:07;;;;;;;7.17;2.40;;;6.70;99.90;;;;;;5014637;28;20190;-78
2023/04/28 01:03:36;;;;;;;3.53;2.13;;;6.80;99.90;;;;;;5015232;28;20289;-79
2023/04/28 01:06:07;;;;;;;6.50;3.23;;;6.70;99.90;;;;;;5015706;28;20626;-79
2023/04/28 01:08:35;;;;;;;6.40;2.30;;;6.70;99.90;;;;;;5016334;28;20190;-78
2023/04/28 01:11:01;;;;;;;8.53;2.20;;;6.70;99.90;;;;;;5015084;28;20179;-80
2023/04/28 01:13:27;;;;;;;4.07;2.10;;;6.70;99.90;;;;;;5016130;28;20179;-79
2023/04/28 01:15:54;;;;;;;6.33;2.27;;;6.70;99.90;;;;;;5016275;28;20256;-79
2023/04/28 01:18:20;;;;;;;5.97;2.13;;;6.70;99.90;;;;;;5016290;28;20179;-78
2023/04/28 01:20:46;;;;;;;4.97;2.10;;;6.70;99.90;;;;;;5015984;28;20524;-79
2023/04/28 01:23:15;;;;;;;8.43;2.40;;;6.70;99.90;;;;;;5015778;28;20261;-79
2023/04/28 01:25:42;;;;;;;5.30;2.23;;;6.70;99.90;;;;;;5015999;28;20227;-79
2023/04/28 01:28:09;;;;;;;7.43;2.40;;;6.70;99.90;;;;;;5014632;28;20681;-79
2023/04/28 01:30:35;;;;;;;4.30;2.40;;;6.70;99.90;;;;;;5015869;28;20175;-78
2023/04/28 01:33:01;;;;;;;5.67;2.40;;;6.70;99.90;;;;;;5015709;28;20186;-79
2023/04/28 01:35:27;;;;;;;8.87;2.43;;;6.70;99.90;;;;;;5015977;28;20186;-79
2023/04/28 01:37:52;;;;;;;14.77;2.77;;;6.70;99.90;;;;;;5449066;23;20342;-79
2023/04/28 01:40:18;;;;;;;6.20;2.47;;;6.80;99.90;;;;;;4996033;28;20180;-79
2023/04/28 01:42:44;;;;;;;5.10;2.83;;;6.70;99.90;;;;;;4994675;28;20207;-80
2023/04/28 01:45:10;;;;;;;6.13;2.50;;;6.80;99.90;;;;;;4994874;28;20188;-80
2023/04/28 01:47:36;;;;;;;7.43;2.60;;;6.80;99.90;;;;;;4995691;28;20611;-78
2023/04/28 01:50:01;;;;;;;3.90;2.17;;;6.80;99.90;;;;;;4994472;28;20259;-79
2023/04/28 01:52:27;;;;;;;6.87;2.60;;;6.80;99.90;;;;;;4995986;28;20511;-79
2023/04/28 01:54:54;;;;;;;4.70;2.10;;;6.80;99.90;;;;;;4995778;28;20626;-79
2023/04/28 01:57:19;;;;;;;9.43;2.63;;;6.70;99.90;;;;;;4995833;28;20200;-79
2023/04/28 01:59:45;;;;;;;4.10;2.03;;;6.80;99.90;;;;;;4995809;28;20220;-79
2023/04/28 02:02:11;;;;;;;6.17;2.40;;;6.70;99.90;;;;;;4995567;28;20200;-79
2023/04/28 02:04:38;;;;;;;2.93;2.27;;;6.70;99.90;;;;;;4995775;28;20621;-80
2023/04/28 02:07:04;;;;;;;4.43;2.17;;;6.70;99.90;;;;;;4994591;28;20176;-79
2023/04/28 02:09:31;;;;;;;6.80;2.17;;;6.70;99.90;;;;;;5010822;28;20179;-79
2023/04/28 02:11:56;;;;;;;6.23;2.23;;;6.70;99.90;;;;;;5015056;28;20163;-79
2023/04/28 02:14:22;;;;;;;4.63;2.30;;;6.70;99.90;;;;;;5015159;28;20172;-79
2023/04/28 02:16:48;;;;;;;8.50;2.27;;;6.70;99.90;;;;;;5013712;28;20178;-79
2023/04/28 02:19:14;;;;;;;3.23;2.20;;;6.70;99.90;;;;;;5014901;28;20614;-79
2023/04/28 02:21:41;;;;;;;3.90;2.27;;;6.60;99.90;;;;;;5013787;28;20550;-79
2023/04/28 02:24:07;;;;;;;8.00;2.33;;;6.60;99.90;;;;;;5014650;28;20641;-79
2023/04/28 02:26:34;;;;;;;6.40;2.50;;;6.60;99.90;;;;;;5014808;28;20202;-79
2023/04/28 02:28:59;;;;;;;7.87;2.27;;;6.60;99.90;;;;;;5014936;28;20179;-79
2023/04/28 02:31:25;;;;;;;4.00;2.20;;;6.60;99.90;;;;;;5014809;28;20184;-79
2023/04/28 02:33:51;;;;;;;4.40;2.30;;;6.60;99.90;;;;;;5014777;28;20186;-79
2023/04/28 02:36:17;;;;;;;3.03;1.87;;;6.60;99.90;;;;;;5014818;28;20171;-79
2023/04/28 02:38:43;;;;;;;6.33;2.50;;;6.60;99.90;;;;;;5014148;28;20241;-79
2023/04/28 02:41:10;;;;;;;4.83;2.40;;;6.60;99.90;;;;;;5014523;28;20210;-79
2023/04/28 02:43:36;;;;;;;5.77;2.60;;;6.60;99.90;;;;;;5014540;28;20206;-79
2023/04/28 02:46:05;;;;;;;4.53;2.80;;;6.60;99.90;;;;;;5014666;28;20172;-79
2023/04/28 02:48:32;;;;;;;5.83;2.40;;;6.60;99.90;;;;;;5014231;28;20207;-79
2023/04/28 02:50:57;;;;;;;3.93;2.27;;;6.60;99.90;;;;;;5014361;28;20625;-80
2023/04/28 02:53:23;;;;;;;4.87;2.30;;;6.60;99.90;;;;;;5014208;28;20160;-79
2023/04/28 02:55:49;;;;;;;5.57;2.27;;;6.60;99.90;;;;;;5014484;28;20174;-79
2023/04/28 02:58:16;;;;;;;7.00;2.63;;;6.60;99.90;;;;;;5014362;28;20603;-79
2023/04/28 03:00:42;;;;;;;6.93;2.60;;;6.60;99.90;;;;;;5014227;28;20171;-79
2023/04/28 03:03:08;;;;;;;7.20;2.63;;;6.60;99.90;;;;;;5013955;28;20218;-81
2023/04/28 03:05:33;;;;;;;4.97;2.60;;;6.60;99.90;;;;;;5014401;28;20171;-78
2023/04/28 03:07:59;;;;;;;3.90;2.40;;;6.60;99.90;;;;;;5013959;28;20183;-79
2023/04/28 03:10:25;;;;;;;7.47;2.57;;;6.70;99.90;;;;;;5014075;28;20180;-80
2023/04/28 03:12:50;;;;;;;8.87;2.60;;;6.60;99.90;;;;;;5014057;28;20610;-79
2023/04/28 03:15:16;;;;;;;4.27;2.43;;;6.60;99.90;;;;;;5014115;28;20179;-79
2023/04/28 03:17:43;;;;;;;4.13;2.50;;;6.70;99.90;;;;;;5014142;28;20250;-79
2023/04/28 03:20:09;;;;;;;4.33;2.30;;;6.60;99.90;;;;;;5013790;28;20180;-79
2023/04/28 03:22:35;;;;;;;6.17;2.77;;;6.60;99.90;;;;;;5013878;28;20199;-81
2023/04/28 03:25:01;;;;;;;3.17;2.33;;;6.60;99.90;;;;;;5013680;28;20167;-80
2023/04/28 03:27:27;;;;;;;5.17;2.30;;;6.60;99.90;;;;;;5014067;28;20190;-79
2023/04/28 03:29:53;;;;;;;5.80;2.30;;;6.50;99.90;;;;;;5013448;28;20179;-79
2023/04/28 03:32:18;;;;;;;7.23;2.27;;;6.50;99.90;;;;;;5013850;28;20246;-80
2023/04/28 03:34:44;;;;;;;4.93;2.20;;;6.40;99.90;;;;;;5012665;28;20229;-79
2023/04/28 03:37:10;;;;;;;4.10;2.30;;;6.40;99.90;;;;;;5012670;28;20209;-79
2023/04/28 03:39:36;;;;;;;4.87;2.70;;;6.30;99.90;;;;;;5012904;28;20242;-79
2023/04/28 03:42:02;;;;;;;5.20;2.23;;;6.20;99.90;;;;;;5013557;28;20175;-80
2023/04/28 03:44:28;;;;;;;5.17;2.27;;;6.20;99.90;;;;;;5013459;28;20179;-79
2023/04/28 03:46:53;;;;;;;4.93;2.30;;;6.20;99.90;;;;;;5013125;28;20514;-79
2023/04/28 03:49:19;;;;;;;6.70;2.73;;;6.10;99.90;;;;;;5013540;28;20517;-80
2023/04/28 03:51:45;;;;;;;5.43;2.40;;;6.10;99.90;;;;;;5013802;28;20192;-79
2023/04/28 03:54:11;;;;;;;4.50;2.30;;;6.10;99.90;;;;;;5012056;28;20218;-80
2023/04/28 03:56:37;;;;;;;4.03;2.27;;;6.00;99.90;;;;;;5013857;28;20190;-79
2023/04/28 03:59:02;;;;;;;4.47;2.27;;;6.00;99.90;;;;;;5013516;28;20183;-80
2023/04/28 04:01:28;;;;;;;4.60;2.23;;;6.00;99.90;;;;;;5013662;28;20171;-79
2023/04/28 04:03:54;;;;;;;2.87;2.00;;;6.00;99.90;;;;;;5013471;28;20196;-79
2023/04/28 04:06:21;;;;;;;3.27;2.30;;;5.90;99.90;;;;;;5013637;28;20171;-80
2023/04/28 04:08:47;;;;;;;4.07;2.80;;;6.00;99.90;;;;;;5013312;28;20197;-81
2023/04/28 04:11:12;;;;;;;4.03;2.07;;;6.00;99.90;;;;;;5012207;28;20171;-80
2023/04/28 04:13:38;;;;;;;5.30;2.10;;;6.00;99.90;;;;;;5013304;28;20167;-79
2023/04/28 04:16:04;;;;;;;6.87;2.40;;;6.00;99.90;;;;;;5013591;28;20207;-80
2023/04/28 04:18:30;;;;;;;5.43;2.57;;;6.00;99.90;;;;;;5013678;28;20183;-79
2023/04/28 04:20:56;;;;;;;4.97;2.80;;;5.90;99.90;;;;;;5013361;28;20218;-79
2023/04/28 04:23:22;;;;;;;6.80;3.00;;;5.90;99.90;;;;;;5013019;28;20251;-79
2023/04/28 04:25:48;;;;;;;5.83;2.87;;;5.90;99.90;;;;;;5013584;28;20174;-79
2023/04/28 04:28:14;;;;;;;4.70;2.37;;;5.90;99.90;;;;;;5013363;28;20168;-79
2023/04/28 04:30:40;;;;;;;3.73;2.23;;;5.80;99.90;;;;;;5013439;28;20202;-80
2023/04/28 04:33:06;;;;;;;5.83;2.60;;;5.90;99.90;;;;;;5013298;28;20171;-80
2023/04/28 04:35:32;;;;;;;4.77;2.60;;;5.90;99.90;;;;;;5013302;28;20237;-79
2023/04/28 04:37:58;;;;;;;5.83;3.07;;;5.90;99.90;;;;;;5012996;28;20239;-79
2023/04/28 04:40:24;;;;;;;7.03;2.63;;;6.00;99.90;;;;;;5013021;28;20495;-79
2023/04/28 04:42:50;;;;;;;4.87;2.73;;;6.00;99.90;;;;;;5015796;28;20206;-80
2023/04/28 04:45:16;;;;;;;5.03;2.57;;;6.00;99.90;;;;;;5012878;28;20176;-79
2023/04/28 04:47:42;;;;;;;5.43;2.57;;;6.10;99.90;;;;;;5010362;28;20176;-79
2023/04/28 04:50:09;;;;;;;5.57;3.30;;;6.20;99.90;;;;;;5013661;28;20167;-79
2023/04/28 04:52:36;;;;;;;5.63;3.20;;;6.20;99.90;;;;;;5016339;28;20257;-79
2023/04/28 04:55:02;;;;;;;7.87;3.10;;;6.20;99.90;;;;;;5016268;28;20545;-79
2023/04/28 04:57:28;;;;;;;5.00;2.97;;;6.20;99.90;;;;;;4997230;28;20537;-79
2023/04/28 04:59:54;;;;;;;9.67;3.40;;;6.30;99.90;;;;;;4996377;28;20183;-79
2023/04/28 05:02:19;;;;;;;4.77;2.60;;;6.30;99.90;;;;;;4999090;28;20210;-79
2023/04/28 05:04:45;;;;;;;5.27;3.10;;;6.30;99.90;;;;;;5005513;28;20175;-79
2023/04/28 05:07:11;;;;;;;4.30;3.17;;;6.30;99.90;;;;;;5005780;28;20178;-79
2023/04/28 05:09:37;;;;;;;5.37;3.50;;;6.30;99.90;;;;;;5005167;28;20283;-79
2023/04/28 05:12:03;;;;;;;7.97;4.30;;;6.40;99.90;;;;;;4995952;28;20172;-79
2023/04/28 05:14:28;;;;;;;8.30;3.20;;;6.40;99.90;;;;;;4996575;28;20180;-78
2023/04/28 05:16:54;;;;;;;7.80;3.50;;;6.50;99.90;;;;;;4996707;28;20579;-79
2023/04/28 05:19:20;;;;;;;6.40;3.43;;;6.60;99.90;;;;;;4996522;28;20180;-80
2023/04/28 05:21:51;;;;;;;6.30;3.30;;;6.70;99.90;;;;;;4996396;28;20175;-79
2023/04/28 05:24:17;;;;;;;5.73;3.53;;;6.70;99.90;;;;;;4995642;28;20208;-79
2023/04/28 05:26:42;;;;;;;6.07;3.60;;;6.90;99.90;;;;;;4996142;28;20183;-80
2023/04/28 05:29:08;;;;;;;6.33;3.47;;;6.90;99.90;;;;;;5006559;28;20183;-79
2023/04/28 05:31:34;;;;;;;6.97;3.73;;;7.00;99.90;;;;;;5014721;28;20179;-80
2023/04/28 05:33:59;;;;;;;9.37;3.77;;;7.20;99.90;;;;;;5015711;28;20167;-79
2023/04/28 05:36:26;;;;;;;5.97;3.43;;;7.30;99.90;;;;;;5015772;28;20187;-81
2023/04/28 05:38:52;;;;;;;6.73;4.03;;;7.30;99.90;;;;;;5015249;28;20230;-80
2023/04/28 05:41:17;;;;;;;5.07;3.40;;;7.40;99.90;;;;;;5015695;28;20516;-80
2023/04/28 05:43:43;;;;;;;9.43;3.90;;;7.60;99.90;;;;;;5014250;28;20301;-80
2023/04/28 05:46:09;;;;;;;7.50;3.67;;;7.70;99.90;;;;;;5014596;28;20186;-80
2023/04/28 05:48:34;;;;;;;8.33;3.80;;;7.80;99.90;;;;;;5015281;28;20263;-80
2023/04/28 05:51:00;;;;;;;7.97;3.70;;;8.00;99.90;;;;;;5015460;28;20210;-79
2023/04/28 05:53:26;;;;;;;5.47;3.73;;;8.10;99.90;;;;;;5014868;28;20198;-79
2023/04/28 05:55:52;;;;;;;7.67;3.80;;;8.20;99.90;;;;;;5015455;28;20261;-79
2023/04/28 05:58:17;;;;;;;6.63;3.70;;;8.30;99.90;;;;;;5015554;28;20226;-78
2023/04/28 06:00:43;;;;;;;6.87;3.90;;;8.40;99.90;;;;;;5015565;28;20175;-78
2023/04/28 06:03:09;;;;;;;8.03;4.00;;;8.50;99.90;;;;;;5014771;28;20211;-79
2023/04/28 06:05:36;;;;;;;11.80;4.27;;;8.50;99.90;;;;;;5015285;28;20163;-79
2023/04/28 06:08:02;;;;;;;4.83;4.00;;;8.50;99.90;;;;;;5015013;28;20190;-78
2023/04/28 06:10:28;;;;;;;7.70;4.40;;;8.60;99.90;;;;;;5012857;28;20187;-80
2023/04/28 06:12:54;;;;;;;8.27;4.30;;;8.80;99.80;;;;;;5006905;28;20582;-78
2023/04/28 06:15:19;;;;;;;8.07;4.70;;;9.00;99.90;;;;;;5024725;28;20261;-78
2023/04/28 06:17:46;;;;;;;7.00;4.40;;;9.30;99.80;;;;;;5025248;28;20205;-78
2023/04/28 06:20:12;;;;;;;9.70;4.30;;;9.50;99.00;;;;;;5023181;28;20175;-79
2023/04/28 06:22:39;;;;;;;13.57;4.45;;;9.60;98.50;;;;;;5019698;28;20249;-79
2023/04/28 06:25:05;;;;;;;7.93;4.30;;;9.80;98.30;;;;;;5016781;28;20694;-79
2023/04/28 06:27:31;;;;;;;7.00;4.45;;;10.00;98.90;;;;;;5020884;28;20528;-80
2023/04/28 06:29:58;;;;;;;6.78;4.28;;;10.20;98.00;;;;;;5018406;28;20186;-78
2023/04/28 06:32:23;;;;;;;10.98;4.43;;;10.40;97.80;;;;;;5019252;28;20190;-78
2023/04/28 06:34:49;;;;;;;6.82;4.20;;;10.50;97.20;;;;;;5024185;28;20183;-79
2023/04/28 06:37:15;;;;;;;9.48;4.55;;;10.70;96.70;;;;;;5023393;28;20186;-78
2023/04/28 06:39:41;;;;;;;9.73;5.07;;;10.80;96.60;;;;;;5021809;28;20230;-80
2023/04/28 06:42:07;;;;;;;10.93;5.07;;;10.90;96.10;;;;;;5024974;28;20186;-79
2023/04/28 06:44:32;;;;;;;7.60;5.03;;;11.00;96.40;;;;;;5022134;28;20183;-79
2023/04/28 06:47:00;;;;;;;12.77;5.38;;;11.20;95.80;;;;;;5024236;28;20262;-79
2023/04/28 06:49:26;;;;;;;10.15;5.40;;;11.40;95.90;;;;;;5022243;28;20644;-78
2023/04/28 06:51:52;;;;;;;13.68;5.70;;;11.50;95.50;;;;;;5023387;28;20187;-79
2023/04/28 06:54:17;;;;;;;10.25;5.35;;;11.50;95.50;;;;;;5023536;28;20178;-79
2023/04/28 06:56:43;;;;;;;8.77;5.70;;;11.60;96.30;;;;;;5022090;28;20183;-80
2023/04/28 06:59:09;;;;;;;11.73;5.47;;;11.70;94.70;;;;;;5025081;28;20266;-79
2023/04/28 07:01:34;;;;;;;9.10;5.10;;;11.60;94.10;;;;;;5019659;28;20237;-79
2023/04/28 07:04:00;;;;;;;7.65;5.28;;;11.50;94.30;;;;;;5023271;28;20221;-80
2023/04/28 07:06:26;;;;;;;9.68;4.65;;;11.50;94.30;;;;;;5021239;28;20194;-79
2023/04/28 07:08:52;;;;;;;10.07;5.53;;;11.50;94.40;;;;;;5021169;28;20245;-78
2023/04/28 07:11:18;;;;;;;11.88;5.82;;;11.60;94.90;;;;;;5016840;28;20191;-77
2023/04/28 07:13:48;;;;;;;9.45;5.80;;;11.60;94.60;;;;;;5019393;28;20182;-78
2023/04/28 07:16:14;;;;;;;7.35;5.25;;;11.50;94.50;;;;;;5015633;28;20167;-78
2023/04/28 07:18:40;;;;;;;14.02;5.88;;;11.40;94.20;;;;;;5014626;28;20175;-79
2023/04/28 07:21:05;;;;;;;11.23;5.30;;;11.40;95.00;;;;;;4995672;28;20254;-77
2023/04/28 07:23:37;;;;;;;9.48;5.47;;;11.40;94.50;;;;;;5011910;28;20732;-78
2023/04/28 07:26:03;;;;;;;9.68;5.65;;;11.40;94.10;;;;;;5013947;28;20156;-81
2023/04/28 07:28:29;;;;;;;8.88;5.47;;;11.40;95.10;;;;;;5012534;28;20233;-80
2023/04/28 07:30:55;;;;;;;10.30;5.97;;;11.40;95.20;;;;;;5012244;28;20175;-78
2023/04/28 07:33:20;;;;;;;11.45;5.82;;;11.40;94.10;;;;;;5013196;28;20190;-78
2023/04/28 07:35:46;;;;;;;10.23;5.93;;;11.40;94.40;;;;;;5013851;28;20173;-79
2023/04/28 07:38:12;;;;;;;10.13;5.53;;;11.60;94.80;;;;;;5012345;28;20250;-78
2023/04/28 07:40:38;;;;;;;9.75;5.38;;;11.80;94.90;;;;;;5013349;28;20207;-78
2023/04/28 07:43:04;;;;;;;9.13;5.30;;;11.90;94.20;;;;;;5012089;28;20549;-78
2023/04/28 07:45:30;;;;;;;13.98;5.80;;;11.90;95.00;;;;;;5013816;28;20163;-78
2023/04/28 07:47:55;;;;;;;13.82;6.25;;;11.80;93.60;;;;;;5012536;28;20175;-78
2023/04/28 07:50:21;;;;;;;10.25;5.63;;;11.80;92.70;;;;;;5012175;28;20179;-78
2023/04/28 07:52:47;;;;;;;8.18;5.40;;;11.80;94.00;;;;;;5012199;28;20183;-77
2023/04/28 07:55:13;;;;;;;9.23;5.40;;;11.70;93.50;;;;;;5013582;28;20214;-80
2023/04/28 07:57:39;;;;;;;12.35;5.18;;;11.80;93.50;;;;;;5013766;28;20171;-79
2023/04/28 08:00:06;;;;;;;12.40;5.75;;;11.90;93.70;;;;;;5013116;28;20182;-80
2023/04/28 08:02:33;;;;;;;7.43;5.00;;;11.80;93.70;;;;;;5013020;28;20206;-78
2023/04/28 08:04:58;;;;;;;12.48;5.57;;;11.90;94.10;;;;;;5013559;28;20160;-78
2023/04/28 08:07:25;;;;;;;12.77;5.80;;;11.90;94.00;;;;;;5017470;28;20178;-79
2023/04/28 08:09:51;;;;;;;10.18;6.13;;;11.90;94.20;;;;;;5021757;28;20182;-78
2023/04/28 08:12:17;;;;;;;12.48;5.80;;;11.90;94.10;;;;;;5031548;28;20174;-78
2023/04/28 08:14:42;;;;;;;10.38;5.28;;;12.10;94.50;;;;;;5031843;28;20537;-78
2023/04/28 08:17:08;;;;;;;8.25;5.57;;;12.20;94.50;;;;;;5030474;28;20167;-79
2023/04/28 08:19:34;;;;;;;10.60;5.95;;;12.30;94.50;;;;;;5017137;28;20175;-79
2023/04/28 08:22:04;;;;;;;10.98;4.97;;;12.40;95.30;;;;;;5016472;28;20227;-78
2023/04/28 08:24:33;;;;;;;10.98;5.28;;;12.50;94.60;;;;;;5006480;28;20230;-79
2023/04/28 08:27:01;;;;;;;9.95;4.95;;;12.50;94.20;;;;;;4996489;28;20631;-79
2023/04/28 08:29:28;;;;;;;11.95;5.60;;;12.50;94.50;;;;;;4996820;28;20184;-79
2023/04/28 08:31:54;;;;;;;8.75;5.57;;;12.50;95.40;;;;;;4995503;28;20685;-79
2023/04/28 08:34:20;;;;;;;12.48;5.40;;;12.60;94.60;;;;;;4995049;28;20176;-79
2023/04/28 08:36:46;;;;;;;11.90;5.82;;;12.50;94.20;;;;;;4995681;28;20211;-79
2023/04/28 08:39:12;;;;;;;9.65;5.13;;;12.60;94.00;;;;;;5008450;28;20689;-79
2023/04/28 08:41:39;;;;;;;10.52;5.60;;;12.60;94.50;;;;;;5015551;28;20183;-78
2023/04/28 08:44:08;;;;;;;10.40;5.75;;;12.60;94.20;;;;;;5015521;28;20215;-79
2023/04/28 08:46:38;;;;;;;9.25;5.80;;;12.60;94.20;;;;;;5020187;28;20197;-79
2023/04/28 08:49:07;;;;;;;11.52;6.18;;;12.70;94.20;;;;;;5021269;28;20229;-80
2023/04/28 08:51:36;;;;;;;8.23;5.35;;;12.80;94.20;;;;;;5026100;28;20175;-78
2023/04/28 08:54:05;;;;;;;8.40;5.40;;;12.90;94.80;;;;;;5020811;28;20262;-79
2023/04/28 08:56:35;;;;;;;7.50;5.35;;;13.00;94.50;;;;;;5014951;28;20245;-78
2023/04/28 08:59:05;;;;;;;13.60;5.38;;;13.20;94.30;;;;;;5016287;28;20182;-78
2023/04/28 09:01:31;;;;;;;7.45;5.25;;;13.40;93.70;;;;;;5016423;28;20174;-80
2023/04/28 09:04:01;;;;;;;11.77;5.05;;;13.70;93.30;;;;;;5016422;28;20214;-79
2023/04/28 09:06:34;;;;;;;13.20;6.05;;;14.00;92.90;;;;;;5032667;28;20628;-79
2023/04/28 09:09:19;;;;;;;9.48;5.18;;;14.10;92.50;;;;;;5020985;28;20302;-80
2023/04/28 09:11:58;;;;;;;7.80;5.40;;;14.40;92.10;;;;;;5013501;28;20183;-82
2023/04/28 09:14:26;;;;;;;8.73;5.43;;;14.50;92.90;;;;;;5014128;28;20682;-79
2023/04/28 09:16:52;;;;;;;12.88;5.15;;;14.60;92.50;;;;;;5014462;28;20634;-79
2023/04/28 09:19:18;;;;;;;9.18;5.57;;;14.70;92.10;;;;;;5015642;28;20214;-80
2023/04/28 09:21:56;;;;;;;8.25;5.72;;;14.90;92.20;;;;;;5016109;28;20630;-82
2023/04/28 09:24:32;;;;;;;13.68;5.50;;;14.90;91.10;;;;;;5014634;28;20276;-81
2023/04/28 09:27:04;;;;;;;15.52;5.65;;;14.80;90.80;;;;;;5020088;28;20182;-81
2023/04/28 09:29:31;;;;;;;11.38;5.35;;;14.70;90.60;;;;;;5035554;28;20252;-80
2023/04/28 09:32:12;;;;;;;11.65;5.50;;;14.90;92.30;;;;;;5016546;28;20195;-80
2023/04/28 09:34:56;;;;;;;10.95;5.65;;;15.10;91.60;;;;;;5014688;28;20183;-80
2023/04/28 09:37:24;;;;;;;9.18;5.28;;;15.20;91.00;;;;;;5021714;28;20182;-80
2023/04/28 09:39:51;;;;;;;12.25;5.85;;;15.20;92.00;;;;;;5015005;28;20238;-79
2023/04/28 09:42:33;;;;;;;12.90;5.13;;;15.50;91.10;;;;;;5015055;28;20242;-79
2023/04/28 09:45:01;;;;;;;9.95;5.78;;;15.60;90.20;;;;;;5015559;28;20182;-81
2023/04/28 09:47:28;;;;;;;10.05;4.80;;;15.50;90.20;;;;;;5015806;28;20250;-81
2023/04/28 09:49:55;;;;;;;11.05;5.20;;;15.30;90.00;;;;;;5015504;28;20175;-80
2023/04/28 09:52:23;;;;;;;8.43;5.35;;;15.10;90.70;;;;;;5021511;28;20175;-79
2023/04/28 09:54:53;;;;;;;9.85;5.20;;;15.00;90.30;;;;;;5035060;28;20202;-80
2023/04/28 09:57:21;;;;;;;7.80;5.30;;;14.80;91.40;;;;;;5033886;28;20556;-80
2023/04/28 09:59:48;;;;;;;12.52;5.85;;;14.50;91.30;;;;;;5035130;28;20177;-80
2023/04/28 10:02:19;;;;;;;9.57;5.63;;;14.40;91.80;;;;;;5024678;28;20213;-80
2023/04/28 10:04:46;;;;;;;9.48;5.60;;;14.30;91.90;;;;;;5015279;28;20171;-80
2023/04/28 10:07:15;;;;;;;17.35;5.97;;;14.30;91.60;;;;;;5014017;28;20167;-79
2023/04/28 10:09:46;;;;;;;9.10;6.03;;;14.20;91.70;;;;;;5014967;28;20220;-80
2023/04/28 10:12:23;;;;;;;8.13;5.53;;;14.20;93.00;;;;;;5013103;28;20209;-80
2023/04/28 10:14:53;;;;;;;11.00;5.78;;;14.20;92.50;;;;;;4996998;28;20202;-80
2023/04/28 10:17:20;;;;;;;11.23;5.57;;;14.10;92.20;;;;;;5010893;28;20556;-80
2023/04/28 10:19:51;;;;;;;8.18;5.63;;;14.10;93.40;;;;;;5011795;28;20203;-78
2023/04/28 10:22:36;;;;;;;13.40;6.05;;;14.00;92.50;;;;;;4993489;28;20190;-81
2023/04/28 10:25:11;;;;;;;18.10;6.40;;;14.10;92.60;;;;;;4993866;28;20219;-79
2023/04/28 10:27:42;;;;;;;11.63;5.78;;;14.10;93.10;;;;;;4995430;28;20720;-80
2023/04/28 10:30:18;;;;;;;15.48;5.90;;;14.10;93.50;;;;;;4995306;28;20180;-79
2023/04/28 10:32:47;;;;;;;9.05;5.70;;;14.20;93.40;;;;;;4995064;28;20167;-79
2023/04/28 10:35:28;;;;;;;13.95;5.85;;;14.20;93.80;;;;;;4995188;28;20196;-80
2023/04/28 10:38:12;;;;;;;9.27;5.75;;;14.30;93.70;;;;;;4997884;28;20230;-80
2023/04/28 10:40:46;;;;;;;9.63;5.25;;;14.20;94.20;;;;;;5013448;28;20644;-80
2023/04/28 10:43:13;;;;;;;10.07;5.70;;;14.40;93.90;;;;;;5013040;28;20661;-80
2023/04/28 10:45:48;;;;;;;10.75;5.32;;;14.30;92.90;;;;;;5014755;28;20176;-81
2023/04/28 10:48:17;;;;;;;9.45;4.68;;;14.40;94.20;;;;;;5014280;28;20177;-80
2023/04/28 10:51:14;;;;;;;11.18;5.93;;;14.40;93.90;;;;;;5012845;28;20275;-80
2023/04/28 10:53:45;;;;;;;9.52;5.50;;;14.30;94.00;;;;;;5012679;28;20179;-81
2023/04/28 10:56:14;;;;;;;12.40;6.28;;;14.20;95.10;;;;;;5014151;28;20195;-80
2023/04/28 10:58:45;;;;;;;9.07;5.53;;;14.20;95.30;;;;;;5014554;28;20167;-81
2023/04/28 11:01:31;;;;;;;8.60;5.80;;;14.20;94.60;;;;;;5010382;28;20242;-80
2023/04/28 11:04:02;;;;;;;8.77;5.57;;;14.10;94.70;;;;;;5013688;28;20214;-80
2023/04/28 11:06:45;;;;;;;13.45;6.35;;;14.10;94.80;;;;;;5012905;28;20521;-79
2023/04/28 11:09:11;;;;;;;16.58;6.00;;;14.20;94.90;;;;;;5014070;28;20186;-80
2023/04/28 11:11:38;;;;;;;24.90;6.38;;;14.10;95.40;;;;;;5013599;28;20175;-81
2023/04/28 11:14:16;;;;;;;10.73;5.53;;;14.20;95.20;;;;;;5012793;28;20285;-81
2023/04/28 11:16:59;;;;;;;9.00;5.32;;;14.20;94.40;;;;;;5010002;28;20187;-80
2023/04/28 11:19:27;;;;;;;14.38;6.07;;;14.30;95.20;;;;;;5002876;28;20175;-80
2023/04/28 11:21:55;;;;;;;10.57;6.45;;;14.30;95.40;;;;;;5004886;28;20305;-80
2023/04/28 11:24:21;;;;;;;13.43;5.82;;;14.30;94.70;;;;;;5011810;28;20245;-78
2023/04/28 11:26:47;;;;;;;14.95;6.18;;;14.30;94.60;;;;;;5012178;28;20186;-80
2023/04/28 11:29:14;;;;;;;10.52;6.05;;;14.30;94.70;;;;;;5013575;28;20186;-80
2023/04/28 11:31:47;;;;;;;20.77;5.75;;;14.30;94.80;;;;;;5013934;28;20171;-79
2023/04/28 11:34:19;;;;;;;14.98;5.78;;;14.20;95.10;;;;;;5012412;28;20181;-80
2023/04/28 11:36:45;;;;;;;9.77;5.88;;;14.20;94.90;;;;;;5013913;28;20163;-81
2023/04/28 11:39:12;;;;;;;10.75;5.93;;;14.20;94.90;;;;;;5012364;28;20700;-80
2023/04/28 11:41:39;;;;;;;9.80;5.88;;;14.20;94.90;;;;;;5013297;28;20732;-79
2023/04/28 11:44:31;;;;;;;10.50;6.30;;;14.20;95.90;;;;;;5013715;28;20253;-82
2023/04/28 11:47:01;;;;;;;8.25;6.20;;;14.20;95.40;;;;;;5012458;28;20274;-79
2023/04/28 11:49:40;;;;;;;13.07;5.82;;;14.00;95.30;;;;;;5013625;28;20174;-79
2023/04/28 11:52:07;;;;;;;10.18;5.95;;;14.00;95.40;;;;;;5015823;28;20610;-79
2023/04/28 11:54:33;;;;;;;7.57;5.22;;;14.00;95.70;;;;;;5016772;28;20206;-79
2023/04/28 11:57:02;;;;;;;10.38;6.20;;;14.00;96.40;;;;;;5016271;28;20179;-79
2023/04/28 11:59:32;;;;;;;8.50;5.72;;;14.00;96.20;;;;;;5017671;28;20218;-79
2023/04/28 12:02:01;;;;;;;12.90;6.65;;;14.10;96.70;;;;;;5016171;28;20179;-79
2023/04/28 12:04:31;;;;;;;11.38;6.55;;;14.00;95.90;;;;;;5016206;28;20211;-80
2023/04/28 12:07:11;;;;;;;10.15;5.82;;;14.10;95.90;;;;;;5016295;28;20184;-78
2023/04/28 12:09:39;;;;;;;10.05;5.63;;;14.10;96.80;;;;;;5015802;28;20190;-80
2023/04/28 12:12:07;;;;;;;10.35;6.32;;;14.20;95.80;;;;;;5016854;28;20806;-80
2023/04/28 12:14:56;;;;;;;10.02;5.97;;;14.20;97.00;;;;;;5014183;28;20673;-80
2023/04/28 12:17:33;;;;;;;12.75;6.15;;;14.30;97.10;;;;;;5018144;28;20183;-79
2023/04/28 12:20:01;;;;;;;12.73;6.30;;;14.30;96.90;;;;;;5021836;28;20855;-79
2023/04/28 12:22:27;;;;;;;10.40;6.22;;;14.50;98.00;;;;;;4997341;28;20180;-79
2023/04/28 12:25:16;;;;;;;12.38;6.50;;;14.40;98.50;;;;;;5018049;28;20569;-80
2023/04/28 12:28:06;;;;;;;10.20;5.88;;;14.50;98.20;;;;;;5036911;28;20756;-81
2023/04/28 12:30:34;;;;;;;15.18;6.93;;;14.40;97.70;;;;;;5020175;28;20167;-80
2023/04/28 12:33:00;;;;;;;13.10;6.30;;;14.30;98.30;;;;;;5015519;28;20618;-79
2023/04/28 12:35:27;;;;;;;8.07;6.13;;;14.30;98.40;;;;;;5016944;28;20500;-82
2023/04/28 12:37:54;;;;;;;13.10;6.78;;;14.20;97.70;;;;;;5015238;28;20239;-80
2023/04/28 12:40:20;;;;;;;14.40;6.80;;;14.10;98.10;;;;;;5014232;28;20172;-80
2023/04/28 12:42:46;;;;;;;13.38;7.97;;;14.10;98.00;;;;;;5016892;28;20254;-80
2023/04/28 12:45:13;;;;;;;10.68;6.93;;;14.00;99.00;;;;;;5015422;28;20179;-79
2023/04/28 12:47:38;;;;;;;9.43;6.57;;;13.90;98.80;;;;;;5015512;28;20517;-79
2023/04/28 12:50:05;;;;;;;8.98;6.15;;;13.90;98.90;;;;;;5016733;28;20179;-80